Time,TemperatureF,DewpointF,PressureIn,WindDirection,WindDirectionDegrees,WindSpeedMPH,WindSpeedGustMPH,Humidity,HourlyPrecipIn,Conditions,Clouds,dailyrainin,SoftwareType,DateUTC
2013-03-29 00:07:00,51.6,49.0,30.09,SE,146,0.0,-999.0,90,-99.99,,,0.00,weatherlink.com 1.10,2013-03-29 07:07:00,
2013-03-29 00:22:00,51.4,49.0,30.09,SE,146,0.0,-999.0,91,-99.99,,,0.00,weatherlink.com 1.10,2013-03-29 07:22:00,
2013-03-29 00:37:00,51.3,49.0,30.08,SE,146,0.0,-999.0,91,-99.99,,,0.00,weatherlink.com 1.10,2013-03-29 07:37:00,
2013-03-29 00:52:00,51.1,49.0,30.08,SE,146,0.0,-999.0,92,-99.99,,,0.00,weatherlink.com 1.10,2013-03-29 07:52:00,
2013-03-29 01:07:00,51.0,49.0,30.08,SE,146,0.0,-999.0,92,-99.99,,,0.00,weatherlink.com 1.10,2013-03-29 08:07:00,
2013-03-29 01:22:00,50.8,49.0,30.08,SE,146,0.0,-999.0,92,-99.99,,,0.00,weatherlink.com 1.10,2013-03-29 08:22:00,
2013-03-29 01:38:00,50.4,48.0,30.08,SE,146,0.0,-999.0,92,-99.99,,,0.00,weatherlink.com 1.10,2013-03-29 08:38:00,
2013-03-29 01:53:00,50.2,48.0,30.08,SE,146,0.0,-999.0,92,-99.99,,,0.00,weatherlink.com 1.10,2013-03-29 08:53:00,
2013-03-29 02:08:00,50.1,48.0,30.07,SE,146,0.0,-999.0,92,-99.99,,,0.00,weatherlink.com 1.10,2013-03-29 09:08:00,
2013-03-29 02:23:00,49.9,48.0,30.07,SE,146,0.0,-999.0,93,-99.99,,,0.00,weatherlink.com 1.10,2013-03-29 09:23:00,
2013-03-29 02:38:00,49.9,48.0,30.07,SE,146,0.0,-999.0,93,-99.99,,,0.00,weatherlink.com 1.10,2013-03-29 09:38:00,
2013-03-29 02:53:00,50.1,48.0,30.07,SE,146,0.0,-999.0,93,-99.99,,,0.00,weatherlink.com 1.10,2013-03-29 09:53:00,
2013-03-29 03:08:00,49.8,48.0,30.07,SE,146,0.0,-999.0,94,-99.99,,,0.00,weatherlink.com 1.10,2013-03-29 10:08:00,
2013-03-29 03:23:00,49.8,48.0,30.06,SE,146,0.0,-999.0,94,-99.99,,,0.00,weatherlink.com 1.10,2013-03-29 10:23:00,
2013-03-29 03:38:00,49.5,48.0,30.06,SE,146,0.0,-999.0,94,-99.99,,,0.00,weatherlink.com 1.10,2013-03-29 10:38:00,
2013-03-29 03:53:00,49.2,48.0,30.06,SE,146,0.0,-999.0,94,-99.99,,,0.00,weatherlink.com 1.10,2013-03-29 10:53:00,
2013-03-29 04:08:00,49.2,48.0,30.06,SE,146,0.0,-999.0,94,-99.99,,,0.00,weatherlink.com 1.10,2013-03-29 11:08:00,
2013-03-29 04:23:00,49.1,48.0,30.06,SE,146,0.0,-999.0,94,-99.99,,,0.00,weatherlink.com 1.10,2013-03-29 11:23:00,
2013-03-29 04:38:00,49.1,48.0,30.06,SE,146,0.0,-999.0,94,-99.99,,,0.00,weatherlink.com 1.10,2013-03-29 11:38:00,
2013-03-29 04:53:00,48.8,47.0,30.06,SE,146,0.0,-999.0,94,-99.99,,,0.00,weatherlink.com 1.10,2013-03-29 11:53:00,
2013-03-29 05:08:00,48.5,47.0,30.06,SE,146,0.0,-999.0,94,-99.99,,,0.00,weatherlink.com 1.10,2013-03-29 12:08:00,
2013-03-29 05:23:00,48.8,48.0,30.06,SE,146,0.0,-999.0,95,-99.99,,,0.00,weatherlink.com 1.10,2013-03-29 12:23:00,
2013-03-29 05:38:00,49.1,48.0,30.06,SE,146,0.0,-999.0,95,-99.99,,,0.00,weatherlink.com 1.10,2013-03-29 12:38:00,
2013-03-29 05:53:00,49.2,48.0,30.06,SE,146,0.0,-999.0,95,-99.99,,,0.00,weatherlink.com 1.10,2013-03-29 12:53:00,
2013-03-29 06:08:00,49.6,49.0,30.06,SE,146,0.0,-999.0,96,-99.99,,,0.00,weatherlink.com 1.10,2013-03-29 13:08:00,
2013-03-29 06:23:00,49.9,49.0,30.06,SE,146,0.0,-999.0,96,-99.99,,,0.00,weatherlink.com 1.10,2013-03-29 13:23:00,
2013-03-29 06:38:00,50.1,49.0,30.06,SE,146,0.0,-999.0,96,-99.99,,,0.00,weatherlink.com 1.10,2013-03-29 13:38:00,
2013-03-29 06:53:00,50.2,49.0,30.06,SE,146,0.0,-999.0,96,-99.99,,,0.00,weatherlink.com 1.10,2013-03-29 13:53:00,
2013-03-29 07:08:00,50.2,49.0,30.07,SE,146,0.0,-999.0,96,-99.99,,,0.00,weatherlink.com 1.10,2013-03-29 14:08:00,
2013-03-29 07:23:00,50.5,49.0,30.07,SE,146,0.0,-999.0,96,-99.99,,,0.00,weatherlink.com 1.10,2013-03-29 14:23:00,
2013-03-29 07:38:00,51.0,50.0,30.07,SE,146,0.0,-999.0,96,-99.99,,,0.00,weatherlink.com 1.10,2013-03-29 14:38:00,
2013-03-29 07:53:00,51.3,50.0,30.07,SE,146,0.0,-999.0,96,-99.99,,,0.00,weatherlink.com 1.10,2013-03-29 14:53:00,
2013-03-29 08:08:00,51.4,50.0,30.07,SE,146,0.0,-999.0,96,-99.99,,,0.00,weatherlink.com 1.10,2013-03-29 15:08:00,
2013-03-29 08:23:00,51.3,50.0,30.07,SE,146,0.0,-999.0,96,-99.99,,,0.00,weatherlink.com 1.10,2013-03-29 15:23:00,
2013-03-29 08:38:00,51.7,51.0,30.07,SE,146,0.0,-999.0,97,-99.99,,,0.00,weatherlink.com 1.10,2013-03-29 15:38:00,
2013-03-29 08:53:00,52.5,52.0,30.08,SE,146,0.0,-999.0,97,-99.99,,,0.00,weatherlink.com 1.10,2013-03-29 15:53:00,
2013-03-29 09:08:00,53.1,52.0,30.08,SE,146,0.0,-999.0,97,-99.99,,,0.00,weatherlink.com 1.10,2013-03-29 16:08:00,
2013-03-29 09:23:00,54.5,54.0,30.07,SE,146,0.0,-999.0,97,-99.99,,,0.00,weatherlink.com 1.10,2013-03-29 16:23:00,
2013-03-29 09:38:00,55.4,55.0,30.07,SSE,151,0.0,-999.0,97,-99.99,,,0.00,weatherlink.com 1.10,2013-03-29 16:38:00,
2013-03-29 09:53:00,56.7,55.0,30.07,SSW,213,3.0,-999.0,95,-99.99,,,0.00,weatherlink.com 1.10,2013-03-29 16:53:00,
2013-03-29 10:08:00,58.1,55.0,30.07,WSW,252,4.0,-999.0,89,-99.99,,,0.00,weatherlink.com 1.10,2013-03-29 17:08:00,
2013-03-29 10:23:00,60.2,54.0,30.07,SW,216,0.0,-999.0,79,-99.99,,,0.00,weatherlink.com 1.10,2013-03-29 17:23:00,
2013-03-29 10:38:00,62.7,54.0,30.07,SW,231,0.0,-999.0,72,-99.99,,,0.00,weatherlink.com 1.10,2013-03-29 17:38:00,
2013-03-29 10:53:00,65.2,52.0,30.07,SW,223,2.0,-999.0,63,-99.99,,,0.00,weatherlink.com 1.10,2013-03-29 17:53:00,
2013-03-29 11:08:00,67.3,50.0,30.06,ESE,109,3.0,-999.0,54,-99.99,,,0.00,weatherlink.com 1.10,2013-03-29 18:08:00,
2013-03-29 11:23:00,69.4,50.0,30.06,SE,134,3.0,-999.0,51,-99.99,,,0.00,weatherlink.com 1.10,2013-03-29 18:23:00,
2013-03-29 11:39:00,70.8,50.0,30.06,NNE,29,1.0,-999.0,48,-99.99,,,0.00,weatherlink.com 1.10,2013-03-29 18:39:00,
2013-03-29 11:54:00,69.9,53.0,30.06,SSE,161,2.0,-999.0,55,-99.99,,,0.00,weatherlink.com 1.10,2013-03-29 18:54:00,
2013-03-29 12:09:00,70.3,51.0,30.06,SE,136,1.0,-999.0,51,-99.99,,,0.00,weatherlink.com 1.10,2013-03-29 19:09:00,
2013-03-29 12:24:00,73.2,51.0,30.06,SSE,147,7.0,-999.0,45,-99.99,,,0.00,weatherlink.com 1.10,2013-03-29 19:24:00,
2013-03-29 12:39:00,74.4,50.0,30.06,WNW,292,1.0,-999.0,43,-99.99,,,0.00,weatherlink.com 1.10,2013-03-29 19:39:00,
2013-03-29 12:54:00,74.7,51.0,30.06,WSW,246,2.0,-999.0,44,-99.99,,,0.00,weatherlink.com 1.10,2013-03-29 19:54:00,
2013-03-29 13:09:00,76.3,52.0,30.06,WSW,249,1.0,-999.0,43,-99.99,,,0.00,weatherlink.com 1.10,2013-03-29 20:09:00,
2013-03-29 13:24:00,76.7,51.0,30.05,ESE,117,2.0,-999.0,41,-99.99,,,0.00,weatherlink.com 1.10,2013-03-29 20:24:00,
2013-03-29 13:39:00,76.0,52.0,30.05,SE,128,3.0,-999.0,43,-99.99,,,0.00,weatherlink.com 1.10,2013-03-29 20:39:00,
2013-03-29 14:09:00,72.3,52.0,30.04,SW,218,2.0,-999.0,49,-99.99,,,0.00,weatherlink.com 1.10,2013-03-29 21:09:00,
2013-03-29 14:24:00,73.2,52.0,30.04,WSW,257,0.0,-999.0,48,-99.99,,,0.00,weatherlink.com 1.10,2013-03-29 21:24:00,
2013-03-29 14:39:00,74.4,53.0,30.04,SW,236,2.0,-999.0,47,-99.99,,,0.00,weatherlink.com 1.10,2013-03-29 21:39:00,
2013-03-29 14:54:00,72.1,52.0,30.04,WSW,243,0.0,-999.0,49,-99.99,,,0.00,weatherlink.com 1.10,2013-03-29 21:54:00,
2013-03-29 15:09:00,69.9,52.0,30.04,WSW,247,2.0,-999.0,54,-99.99,,,0.00,weatherlink.com 1.10,2013-03-29 22:09:00,
2013-03-29 15:24:00,68.1,52.0,30.04,SSE,158,1.0,-999.0,57,-99.99,,,0.00,weatherlink.com 1.10,2013-03-29 22:24:00,
2013-03-29 15:39:00,67.6,51.0,30.05,SW,221,2.0,-999.0,56,-99.99,,,0.00,weatherlink.com 1.10,2013-03-29 22:39:00,
2013-03-29 15:54:00,66.6,52.0,30.06,WSW,239,0.0,-999.0,60,-99.99,,,0.00,weatherlink.com 1.10,2013-03-29 22:54:00,
2013-03-29 16:10:00,64.0,51.0,30.06,SSW,201,0.0,-999.0,62,-99.99,,,0.00,weatherlink.com 1.10,2013-03-29 23:10:00,
2013-03-29 16:24:00,60.9,51.0,30.06,SW,228,0.0,-999.0,69,-99.99,,,0.00,weatherlink.com 1.10,2013-03-29 23:24:00,
2013-03-29 16:39:00,59.8,51.0,30.06,WSW,238,0.0,-999.0,73,-99.99,,,0.00,weatherlink.com 1.10,2013-03-29 23:39:00,
2013-03-29 16:54:00,61.2,51.0,30.05,SW,218,0.0,-999.0,69,-99.99,,,0.00,weatherlink.com 1.10,2013-03-29 23:54:00,
2013-03-29 17:10:00,61.5,51.0,30.04,SW,236,0.0,-999.0,68,-99.99,,,0.00,weatherlink.com 1.10,2013-03-30 00:10:00,
2013-03-29 17:25:00,61.3,51.0,30.04,SW,223,0.0,-999.0,68,-99.99,,,0.00,weatherlink.com 1.10,2013-03-30 00:25:00,
2013-03-29 17:40:00,62.3,51.0,30.05,SSE,149,0.0,-999.0,66,-99.99,,,0.00,weatherlink.com 1.10,2013-03-30 00:40:00,
2013-03-29 17:55:00,61.8,51.0,30.04,SSW,196,1.0,-999.0,67,-99.99,,,0.00,weatherlink.com 1.10,2013-03-30 00:55:00,
2013-03-29 18:10:00,60.2,50.0,30.04,SSE,163,0.0,-999.0,70,-99.99,,,0.00,weatherlink.com 1.10,2013-03-30 01:10:00,
2013-03-29 18:25:00,59.8,50.0,30.04,SSE,164,0.0,-999.0,70,-99.99,,,0.00,weatherlink.com 1.10,2013-03-30 01:25:00,
2013-03-29 18:40:00,59.2,51.0,30.04,SSE,162,0.0,-999.0,73,-99.99,,,0.00,weatherlink.com 1.10,2013-03-30 01:40:00,
2013-03-29 18:55:00,59.3,50.0,30.04,SSW,196,0.0,-999.0,71,-99.99,,,0.00,weatherlink.com 1.10,2013-03-30 01:55:00,
2013-03-29 19:10:00,58.6,50.0,30.04,SSW,196,0.0,-999.0,74,-99.99,,,0.00,weatherlink.com 1.10,2013-03-30 02:10:00,
2013-03-29 19:25:00,58.1,51.0,30.03,SSW,196,0.0,-999.0,76,-99.99,,,0.00,weatherlink.com 1.10,2013-03-30 02:25:00,
2013-03-29 19:40:00,58.0,50.0,30.02,SSW,196,0.0,-999.0,76,-99.99,,,0.00,weatherlink.com 1.10,2013-03-30 02:40:00,
2013-03-29 19:55:00,57.2,50.0,30.03,SSW,196,0.0,-999.0,76,-99.99,,,0.00,weatherlink.com 1.10,2013-03-30 02:55:00,
2013-03-29 20:10:00,56.5,50.0,30.04,WSW,251,0.0,-999.0,78,-99.99,,,0.00,weatherlink.com 1.10,2013-03-30 03:10:00,
2013-03-29 20:25:00,55.3,50.0,30.05,West,263,0.0,-999.0,81,-99.99,,,0.00,weatherlink.com 1.10,2013-03-30 03:25:00,
2013-03-29 20:40:00,54.4,50.0,30.05,West,263,0.0,-999.0,84,-99.99,,,0.00,weatherlink.com 1.10,2013-03-30 03:40:00,
2013-03-29 20:55:00,54.1,50.0,30.05,West,263,0.0,-999.0,85,-99.99,,,0.00,weatherlink.com 1.10,2013-03-30 03:55:00,
2013-03-29 21:10:00,54.5,50.0,30.04,West,263,0.0,-999.0,85,-99.99,,,0.00,weatherlink.com 1.10,2013-03-30 04:10:00,
2013-03-29 21:25:00,55.0,50.0,30.04,West,263,0.0,-999.0,83,-99.99,,,0.00,weatherlink.com 1.10,2013-03-30 04:25:00,
2013-03-29 21:40:00,55.3,50.0,30.04,SSW,201,0.0,-999.0,82,-99.99,,,0.00,weatherlink.com 1.10,2013-03-30 04:40:00,
2013-03-29 21:55:00,54.8,50.0,30.06,SW,216,1.0,-999.0,84,-99.99,,,0.00,weatherlink.com 1.10,2013-03-30 04:55:00,
2013-03-29 22:10:00,53.8,50.0,30.07,WSW,257,0.0,-999.0,86,-99.99,,,0.00,weatherlink.com 1.10,2013-03-30 05:10:00,
2013-03-29 22:25:00,53.2,50.0,30.07,WSW,257,0.0,-999.0,87,-99.99,,,0.00,weatherlink.com 1.10,2013-03-30 05:25:00,
2013-03-29 22:40:00,53.3,50.0,30.05,WSW,257,0.0,-999.0,89,-99.99,,,0.00,weatherlink.com 1.10,2013-03-30 05:40:00,
2013-03-29 22:55:00,53.1,50.0,30.06,SSW,195,0.0,-999.0,88,-99.99,,,0.00,weatherlink.com 1.10,2013-03-30 05:55:00,
2013-03-29 23:10:00,53.1,50.0,30.07,SSW,195,0.0,-999.0,89,-99.99,,,0.00,weatherlink.com 1.10,2013-03-30 06:10:00,
2013-03-29 23:25:00,53.1,50.0,30.07,SSE,154,0.0,-999.0,89,-99.99,,,0.00,weatherlink.com 1.10,2013-03-30 06:25:00,
2013-03-29 23:40:00,53.1,50.0,30.06,SSE,154,0.0,-999.0,89,-99.99,,,0.00,weatherlink.com 1.10,2013-03-30 06:40:00,
2013-03-29 23:55:00,53.5,50.0,30.05,SSE,154,0.0,-999.0,88,-99.99,,,0.00,weatherlink.com 1.10,2013-03-30 06:55:00,